Date,TemperatureHighF,TemperatureAvgF,TemperatureLowF,DewpointHighF,DewpointAvgF,DewpointLowF,HumidityHigh,HumidityAvg,HumidityLow,PressureMaxIn,PressureMinIn,WindSpeedMaxMPH,WindSpeedAvgMPH,GustSpeedMaxMPH,PrecipitationSumIn
2013-1-1,24.0,16.6,7.0,13.0,6.6,0.0,72,64,60,27.64,27.50,7,3,21,0.00
2013-1-2,22.0,9.1,-4.0,14.0,1.9,-10.0,82,73,55,27.88,27.58,4,2,13,0.00
2013-1-3,14.0,4.3,-8.0,-2.0,-5.8,-12.0,84,63,48,27.87,27.67,4,2,8,0.00
2013-1-4,33.0,19.1,-2.0,25.0,13.3,-6.0,87,78,64,27.67,27.49,9,2,21,0.00
2013-1-5,32.0,26.7,13.0,27.0,17.9,10.0,92,71,48,27.96,27.52,7,2,18,0.00
2013-1-6,33.0,23.1,12.0,29.0,19.9,9.0,93,87,79,27.93,27.64,2,0,5,0.00
2013-1-7,32.0,22.0,10.0,29.0,14.6,7.0,92,74,51,28.09,27.67,4,1,10,0.00
2013-1-8,43.0,21.4,3.0,24.0,13.7,0.0,91,75,45,28.10,27.96,5,1,12,0.04
2013-1-9,34.0,26.1,15.0,26.0,20.6,13.0,93,80,70,28.11,27.79,3,1,5,0.04
2013-1-10,41.0,34.7,28.0,27.0,24.3,23.0,81,66,56,28.29,28.01,7,2,22,0.03
2013-1-11,34.0,27.7,20.0,31.0,24.5,18.0,96,88,66,28.28,27.93,4,1,8,0.00
2013-1-12,39.0,34.6,32.0,38.0,33.6,31.0,97,97,96,27.94,27.86,2,0,4,0.01
2013-1-13,42.0,40.2,36.0,41.0,39.2,35.0,98,98,97,27.87,27.71,4,1,8,0.01
2013-1-14,53.0,41.3,33.0,48.0,35.1,24.0,98,81,54,27.99,27.60,7,2,18,0.01
2013-1-15,33.0,30.3,27.0,25.0,23.3,20.0,83,75,66,28.06,27.97,3,1,8,0.00
2013-1-16,29.0,27.8,26.0,28.0,25.6,22.0,96,91,81,27.97,27.52,3,0,5,0.00
2013-1-17,36.0,24.9,12.0,30.0,19.6,1.0,96,80,61,27.84,27.52,5,1,16,0.00
2013-1-18,19.0,9.9,2.0,4.0,-2.8,-10.0,76,57,38,28.08,27.81,7,2,19,0.00
2013-1-19,39.0,27.0,11.0,25.0,18.0,5.0,89,70,52,28.01,27.55,4,1,12,0.05
2013-1-20,35.0,25.5,18.0,26.0,10.9,0.0,68,54,44,27.63,27.53,13,6,26,0.08
2013-1-21,23.0,17.5,12.0,16.0,6.1,-2.0,91,62,43,27.75,27.49,12,2,23,0.01
2013-1-22,17.0,11.2,2.0,15.0,8.1,-3.0,91,87,72,27.73,27.47,1,0,7,0.00
2013-1-23,-3.0,-6.2,-9.0,-10.0,-13.5,-17.0,80,70,61,27.81,27.78,4,1,9,0.00
2013-1-24,11.0,-1.4,-14.0,-7.0,-13.4,-19.0,79,58,34,27.96,27.76,9,3,22,0.00
2013-1-25,11.0,2.2,-3.0,2.0,-7.2,-10.0,74,65,49,28.01,27.78,5,2,11,0.00
2013-1-26,13.0,7.4,3.0,3.0,-0.6,-9.0,82,70,37,27.94,27.74,6,2,15,0.00
2013-1-27,23.0,12.6,5.0,4.0,-3.2,-9.0,79,52,26,28.18,27.94,6,2,15,0.00
2013-1-28,19.0,11.9,2.0,17.0,5.7,-6.0,92,76,54,28.17,27.75,6,1,10,0.00
2013-1-29,31.0,24.2,16.0,29.0,21.6,14.0,96,90,77,27.91,27.76,3,1,6,0.00
2013-1-30,50.0,36.9,30.0,49.0,35.9,29.0,98,97,95,27.83,27.13,6,2,11,0.08
2013-1-31,50.0,43.7,38.0,49.0,40.1,33.0,98,88,77,27.13,26.69,15,9,29,0.89
2013-2-7,18.0,17.0,16.0,2.0,1.3,-1.0,52,49,43,28.20,28.17,3,1,7,0.00
2013-2-8,20.0,17.2,14.0,16.0,11.1,-2.0,92,78,40,28.18,27.57,13,5,20,0.00
2013-2-9,19.0,12.6,8.0,15.0,6.9,-1.0,92,78,62,27.99,27.52,6,3,16,0.00
2013-2-10,31.0,14.6,2.0,8.0,1.8,-4.0,80,59,30,28.17,27.99,5,2,11,0.01
2013-2-11,29.0,19.0,8.0,28.0,14.1,3.0,96,82,51,28.05,27.34,4,1,6,0.01
2013-2-12,39.0,34.2,28.0,31.0,28.3,24.0,97,79,68,27.58,27.34,9,4,22,0.11
2013-2-13,36.0,30.4,24.0,24.0,21.2,18.0,81,69,52,27.58,27.47,4,1,10,0.02
2013-2-14,27.0,25.0,23.0,20.0,19.6,19.0,84,80,74,27.70,27.47,2,0,2,0.02
2013-2-15,46.0,33.6,23.0,30.0,23.4,19.0,85,67,48,27.69,27.61,8,2,20,0.01
2013-2-16,32.0,27.7,20.0,26.0,18.5,5.0,94,69,51,27.71,27.55,4,1,11,0.01
2013-2-17,20.0,14.4,10.0,6.0,3.1,0.0,71,60,51,27.55,27.24,9,4,26,0.00
2013-2-18,26.0,15.2,7.0,2.0,-2.6,-7.0,71,48,23,27.84,27.44,11,4,33,0.00
2013-2-19,40.0,25.6,10.0,32.0,12.5,-5.0,96,60,31,27.87,27.32,9,2,14,0.00
2013-2-20,33.0,26.4,21.0,32.0,20.8,13.0,96,79,66,27.45,27.27,10,4,18,0.00
2013-2-21,21.0,17.3,14.0,18.0,12.2,9.0,90,80,73,27.57,27.45,8,4,16,0.00
2013-2-25,31.0,29.8,29.0,29.0,28.4,27.0,96,94,92,27.96,27.77,1,0,4,0.06
2013-2-26,37.0,32.0,28.0,33.0,29.3,27.0,97,90,79,28.07,27.90,9,2,16,0.09
2013-2-27,34.0,31.8,30.0,32.0,29.8,27.0,96,93,81,27.90,27.39,15,8,24,0.07
2013-2-28,39.0,31.9,29.0,36.0,30.5,28.0,97,95,87,27.39,27.33,5,0,6,0.16
2013-3-2,36.0,31.0,25.0,28.0,25.0,22.0,90,78,66,27.45,27.40,4,2,11,0.00
2013-3-3,34.0,27.8,23.0,27.0,23.5,20.0,91,84,75,27.42,27.34,5,2,12,0.02
2013-3-4,33.0,26.7,23.0,24.0,21.4,19.0,87,81,70,27.56,27.36,6,2,16,0.01
2013-3-5,42.0,31.5,23.0,28.0,24.6,19.0,87,76,57,27.83,27.55,5,1,12,0.01
2013-3-6,34.0,32.7,31.0,30.0,27.5,24.0,90,81,75,27.91,27.83,12,7,23,0.01
2013-3-7,38.0,32.6,30.0,27.0,24.4,22.0,79,72,62,27.91,27.83,8,2,14,0.00
2013-3-8,41.0,34.9,29.0,25.0,23.5,22.0,84,63,50,27.99,27.79,3,1,10,0.00
2013-3-9,55.0,38.4,28.0,24.0,20.5,11.0,78,54,18,28.04,27.97,5,2,12,0.00
2013-3-10,51.0,45.6,37.0,30.0,27.2,25.0,75,50,38,28.08,27.98,8,3,13,0.00
2013-3-11,37.0,37.0,37.0,30.0,30.0,30.0,75,75,75,28.00,28.00,2,2,4,0.00
2013-3-24,41.0,34.5,27.0,25.0,23.3,21.0,79,64,52,27.59,27.51,5,2,16,0.00
2013-3-25,38.0,27.2,20.0,25.0,21.6,18.0,93,80,58,27.54,27.34,1,0,4,0.00
2013-3-26,45.0,37.9,31.0,27.0,23.4,20.0,82,57,39,27.55,27.34,7,2,15,0.01
2013-3-27,46.0,35.8,24.0,32.0,25.9,20.0,94,69,46,27.66,27.52,5,2,16,0.01
2013-3-28,47.0,38.1,32.0,37.0,32.5,29.0,97,81,58,27.79,27.65,4,1,8,0.01
2013-3-29,49.0,39.8,34.0,36.0,32.6,29.0,89,76,55,27.81,27.75,5,1,15,0.01
2013-3-30,50.0,40.6,29.0,31.0,23.5,13.0,86,55,26,27.85,27.78,6,1,13,0.01
2013-3-31,55.0,39.5,22.0,37.0,22.9,-99.9,93,58,29,27.86,27.53,8,2,19,0.10
2013-4-1,49.0,36.5,28.0,43.0,31.4,13.0,97,83,46,27.53,27.27,10,3,23,0.54
2013-4-2,28.0,25.6,23.0,14.0,11.3,9.0,58,54,50,27.60,27.50,7,4,20,0.20
2013-4-3,40.0,30.7,23.0,15.0,11.2,6.0,61,45,25,27.88,27.59,12,6,29,0.00
2013-4-4,51.0,37.8,24.0,19.0,15.0,11.0,64,41,24,27.99,27.71,7,3,18,0.00
2013-4-5,52.0,40.1,31.0,28.0,23.8,18.0,72,53,33,27.71,27.47,6,2,21,0.00
2013-4-6,40.0,31.5,25.0,21.0,7.9,2.0,66,39,22,28.06,27.65,10,3,20,0.00
2013-4-7,56.0,39.3,25.0,32.0,18.6,9.0,63,44,29,28.04,27.67,10,3,21,0.00
2013-4-8,57.0,48.6,42.0,35.0,32.4,30.0,75,55,36,27.86,27.78,6,2,12,0.00
2013-4-9,57.0,46.4,41.0,46.0,40.4,31.0,95,81,56,27.81,27.65,7,2,18,0.18
2013-4-10,51.0,44.7,41.0,46.0,42.4,39.0,97,92,80,27.75,27.65,3,1,8,0.77
2013-4-11,42.0,41.0,40.0,41.0,40.0,39.0,96,96,96,27.70,27.65,1,0,3,0.33
2013-4-13,51.0,44.8,39.0,37.0,35.2,33.0,89,70,53,27.68,27.53,4,2,10,0.11
2013-4-14,45.0,39.0,33.0,36.0,32.7,29.0,94,78,57,27.97,27.65,6,2,17,0.02
2013-4-15,48.0,33.8,26.0,36.0,29.8,25.0,96,85,60,28.12,27.97,4,1,10,0.02
2013-4-16,62.0,48.9,38.0,52.0,39.9,31.0,87,72,56,28.11,27.76,8,4,19,0.02
2013-4-17,57.0,50.3,38.0,34.0,31.1,27.0,67,48,36,28.11,27.95,6,3,16,0.05
2013-4-18,59.0,46.0,28.0,37.0,30.2,24.0,92,57,39,28.17,27.87,12,3,19,0.00
2013-4-19,73.0,61.7,51.0,61.0,54.2,37.0,93,77,56,27.86,27.32,14,5,30,0.28
2013-4-20,56.0,43.5,35.0,54.0,34.3,19.0,94,72,42,27.99,27.40,11,5,23,0.44
2013-4-21,49.0,37.3,29.0,22.0,18.6,16.0,65,48,27,28.43,27.99,6,2,15,0.01
2013-4-22,52.0,38.3,24.0,28.0,21.4,17.0,83,54,29,28.49,28.35,13,4,20,0.00
2013-4-23,39.0,35.1,28.0,35.0,31.1,26.0,93,86,77,28.35,27.94,10,3,16,0.00
2013-4-24,75.0,55.0,37.0,48.0,40.7,34.0,95,64,24,27.95,27.48,6,2,15,0.00
2013-4-25,61.0,50.2,37.0,50.0,32.9,24.0,80,53,31,28.06,27.49,9,3,18,0.00
2013-4-26,56.0,44.3,28.0,36.0,30.3,25.0,89,61,36,28.19,28.06,6,1,15,0.00
2013-4-27,63.0,48.6,31.0,39.0,30.9,22.0,95,57,21,28.19,28.04,5,1,11,0.00
2013-4-28,70.0,52.8,32.0,39.0,33.7,-99.9,90,55,28,28.10,27.93,9,2,16,0.00
2013-4-29,69.0,55.8,42.0,42.0,38.5,35.0,78,54,35,28.01,27.92,9,2,14,0.00
2013-4-30,73.0,60.4,51.0,39.0,33.2,23.0,55,37,26,28.12,28.00,7,2,12,0.00
2013-5-1,75.0,59.8,39.0,37.0,31.2,25.0,75,39,16,28.22,28.12,9,2,14,0.00
2013-5-2,80.0,58.1,41.0,45.0,38.0,25.0,84,51,25,28.26,28.09,14,3,24,0.00
2013-5-3,67.0,54.2,39.0,44.0,38.2,28.0,81,57,38,28.30,28.14,9,3,19,0.00
2013-5-4,72.0,57.0,40.0,48.0,39.5,29.0,96,59,24,28.15,27.99,9,3,18,0.00
2013-5-5,72.0,55.1,35.0,39.0,34.6,31.0,88,51,24,28.09,27.95,8,2,16,0.00
2013-5-6,78.0,58.3,37.0,43.0,34.5,19.0,93,50,12,28.01,27.86,7,2,11,0.00
2013-5-7,82.0,64.0,41.0,52.0,41.8,32.0,94,52,18,27.94,27.82,6,2,11,0.00
2013-5-8,73.0,61.5,50.0,62.0,55.3,47.0,96,81,51,27.98,27.84,12,3,18,0.24
2013-5-9,69.0,60.2,55.0,59.0,56.6,53.0,97,89,65,27.83,27.68,6,2,13,0.23
2013-5-10,76.0,61.0,50.0,61.0,53.1,-99.9,98,81,49,27.75,27.65,6,1,9,0.06
2013-5-11,67.0,62.0,58.0,62.0,58.4,55.0,97,88,79,27.66,27.43,8,2,14,0.54
2013-5-12,64.0,54.2,43.0,57.0,43.6,-99.9,97,72,37,27.55,27.37,8,3,21,0.43
2013-5-13,49.0,43.0,39.0,34.0,30.4,27.0,78,61,49,27.81,27.55,9,5,18,0.01
2013-5-14,54.0,44.8,33.0,36.0,30.5,26.0,91,60,35,27.84,27.74,6,2,14,0.00
2013-5-15,65.0,44.6,28.0,49.0,36.8,26.0,96,79,32,27.81,27.42,6,2,16,0.17
2013-5-16,75.0,54.3,46.0,52.0,21.5,-99.9,97,58,26,27.62,27.39,11,3,26,0.03
2013-5-17,66.0,52.2,45.0,44.0,33.3,-99.9,81,62,34,28.00,27.62,5,2,14,0.01
2013-5-18,71.0,54.7,36.0,47.0,39.3,32.0,96,63,26,28.09,27.99,6,1,12,0.00
2013-5-19,68.0,53.9,41.0,54.0,48.3,40.0,96,83,52,28.10,27.96,7,2,12,0.36
2013-5-20,70.0,60.9,53.0,63.0,58.0,52.0,97,91,78,27.96,27.76,4,1,10,0.39
2013-5-21,78.0,61.0,50.0,67.0,57.7,49.0,98,90,67,27.89,27.65,9,3,17,0.65
2013-5-22,56.0,50.8,49.0,55.0,49.8,48.0,98,97,95,27.74,27.67,6,3,13,0.90
2013-5-23,73.0,61.4,51.0,69.0,59.2,50.0,98,93,83,27.68,27.53,6,2,13,0.42
2013-5-24,66.0,55.0,44.0,63.0,53.1,42.0,98,93,85,27.68,27.42,5,2,12,0.21
2013-5-25,44.0,40.9,33.0,43.0,39.3,32.0,96,94,92,27.68,27.57,5,3,16,0.76
2013-5-26,51.0,42.4,33.0,42.0,38.0,32.0,96,85,67,27.84,27.53,6,3,18,0.42
2013-5-27,67.0,51.0,31.0,43.0,36.9,30.0,97,64,31,27.96,27.83,6,2,19,0.02
2013-5-28,73.0,56.1,35.0,46.0,41.1,34.0,96,63,32,28.03,27.91,5,1,11,0.00
2013-5-29,58.0,54.8,51.0,57.0,51.8,43.0,98,90,64,27.94,27.78,6,2,12,0.23
2013-5-30,85.0,69.9,53.0,67.0,61.5,52.0,99,78,51,27.88,27.79,6,2,13,0.07
2013-5-31,90.0,75.1,57.0,70.0,62.5,56.0,98,69,35,27.89,27.73,7,2,15,0.00
2013-6-1,91.0,77.3,61.0,70.0,64.5,60.0,96,68,38,27.76,27.63,8,2,15,0.00
2013-6-2,89.0,72.4,64.0,72.0,65.5,-99.9,98,84,53,27.64,27.45,9,2,24,1.69
2013-6-3,76.0,65.9,55.0,63.0,57.4,48.0,98,77,46,27.63,27.55,6,2,16,0.32
2013-6-4,65.0,56.0,47.0,48.0,43.4,39.0,80,64,46,27.89,27.62,5,2,14,0.00
2013-6-5,72.0,58.4,42.0,48.0,42.1,33.0,95,58,33,27.99,27.88,4,1,9,0.00
2013-6-6,72.0,60.4,50.0,55.0,48.3,39.0,92,67,39,27.98,27.87,7,2,12,0.04
2013-6-7,55.0,51.5,49.0,53.0,49.9,47.0,97,94,90,27.89,27.67,9,3,14,0.76
2013-6-8,66.0,58.1,51.0,61.0,55.0,50.0,97,90,79,27.81,27.51,5,1,9,0.58
2013-6-9,75.0,63.9,55.0,59.0,54.7,51.0,98,75,44,27.97,27.81,6,2,14,0.01
2013-6-10,70.0,58.8,47.0,60.0,54.3,46.0,98,86,57,28.01,27.80,6,2,12,0.19
2013-6-11,58.0,55.0,53.0,55.0,53.6,51.0,98,95,89,27.80,27.38,8,3,14,1.08
2013-6-12,60.0,55.8,53.0,55.0,53.0,51.0,98,91,80,27.63,27.37,4,1,14,0.52
2013-6-13,65.0,55.8,48.0,57.0,52.2,47.0,98,89,60,27.62,27.50,2,0,6,0.16
2013-6-14,76.0,63.0,52.0,59.0,52.5,45.0,98,73,36,27.60,27.47,5,1,11,0.12
2013-6-15,74.0,64.8,54.0,52.0,46.4,41.0,86,54,33,27.73,27.60,5,2,14,0.00
2013-6-16,72.0,58.6,46.0,59.0,53.4,45.0,97,84,56,27.72,27.50,5,1,11,0.06
2013-6-17,77.0,63.9,53.0,62.0,58.3,52.0,98,83,53,27.70,27.57,5,2,13,0.04
2013-6-18,61.0,57.9,55.0,58.0,55.1,53.0,96,91,78,27.78,27.68,2,0,5,0.10
2013-6-19,65.0,57.9,53.0,50.0,46.6,45.0,86,67,49,27.95,27.87,1,0,4,0.01
2013-6-20,76.0,58.0,42.0,53.0,47.0,41.0,97,72,36,28.06,27.95,4,1,7,0.01
2013-6-22,81.0,76.2,68.0,68.0,65.3,63.0,86,69,55,27.98,27.89,5,2,10,0.00
2013-6-23,85.0,71.0,63.0,76.0,67.6,62.0,98,90,68,27.94,27.76,5,1,9,0.57
2013-6-24,88.0,74.0,64.0,72.0,68.1,63.0,99,84,52,27.81,27.71,5,1,12,0.40
2013-6-25,87.0,72.0,63.0,73.0,67.0,62.0,98,86,55,27.77,27.56,7,1,14,0.44
2013-6-26,73.0,67.8,63.0,71.0,66.4,62.0,99,96,81,27.63,27.55,3,0,7,0.69
2013-6-27,76.0,67.7,63.0,70.0,65.3,62.0,98,93,79,27.63,27.55,9,3,13,0.01
2013-6-28,72.0,63.9,58.0,67.0,62.1,57.0,98,94,83,27.55,27.28,9,4,15,1.12
2013-6-29,79.0,70.5,63.0,71.0,65.9,62.0,99,86,64,27.49,27.30,6,1,17,0.25
2013-6-30,84.0,71.4,64.0,71.0,65.9,62.0,98,84,62,27.73,27.49,4,1,8,0.14
2013-7-1,74.0,68.6,64.0,70.0,67.0,63.0,99,96,85,27.86,27.72,4,0,10,0.80
2013-7-2,78.0,67.5,61.0,73.0,66.0,60.0,99,95,86,27.99,27.84,7,2,11,2.51
2013-7-3,86.0,73.5,61.0,74.0,68.0,60.0,98,85,63,27.98,27.91,6,2,10,1.03
2013-7-4,89.0,77.8,67.0,76.0,71.2,66.0,98,82,58,28.00,27.87,4,1,11,0.06
2013-7-5,89.0,77.3,69.0,76.0,71.6,68.0,99,84,53,27.96,27.85,10,2,17,0.06
2013-7-6,85.0,75.4,70.0,73.0,69.4,65.0,98,83,54,27.89,27.81,5,1,16,0.04
2013-7-7,77.0,69.9,65.0,74.0,67.3,63.0,96,91,82,27.83,27.72,2,0,4,0.04
2013-7-8,82.0,72.1,68.0,73.0,69.7,67.0,98,93,69,27.82,27.73,4,1,8,0.34
2013-7-9,78.0,73.3,68.0,70.0,68.2,66.0,94,84,74,27.90,27.83,6,4,11,0.03
2013-7-10,75.0,68.2,66.0,71.0,65.0,-99.9,98,93,85,27.86,27.58,7,3,11,0.51
2013-7-11,81.0,72.7,62.0,71.0,66.4,59.0,99,82,58,27.79,27.56,4,1,10,0.22
2013-7-12,82.0,69.1,58.0,64.0,60.5,57.0,96,76,49,28.01,27.79,4,1,10,0.01
2013-7-13,77.0,72.8,65.0,69.0,65.4,60.0,94,78,62,28.12,28.01,6,1,8,0.00
2013-7-14,86.0,75.3,67.0,73.0,69.2,66.0,98,83,61,28.12,28.02,4,1,9,0.00
2013-7-15,90.0,77.2,65.0,73.0,67.6,64.0,98,76,44,28.04,27.93,5,1,10,0.00
2013-7-16,88.0,76.7,64.0,72.0,67.5,63.0,96,75,54,28.01,27.96,3,1,9,0.00
2013-7-17,91.0,77.6,64.0,74.0,69.2,63.0,98,78,48,28.00,27.79,5,2,11,0.00
2013-7-18,90.0,76.5,70.0,74.0,71.1,69.0,97,85,56,27.84,27.75,6,1,10,0.02
2013-7-19,91.0,80.7,69.0,77.0,72.0,68.0,98,77,57,27.76,27.50,9,3,19,0.06
2013-7-20,83.0,74.8,67.0,71.0,67.5,64.0,96,79,63,27.61,27.46,7,3,17,0.07
2013-7-21,81.0,70.1,59.0,65.0,61.9,58.0,97,77,52,27.81,27.60,3,1,12,0.00
2013-7-22,75.0,65.6,56.0,68.0,62.5,55.0,97,90,77,27.83,27.70,8,2,13,0.02
2013-7-23,79.0,67.5,63.0,70.0,65.0,61.0,98,92,73,27.70,27.36,6,1,10,1.61
2013-7-24,73.0,65.0,52.0,69.0,59.9,46.0,99,85,63,27.81,27.39,5,1,12,0.01
2013-7-25,72.0,60.2,47.0,60.0,52.9,45.0,93,78,58,27.91,27.80,4,1,6,0.01
2013-7-26,75.0,64.1,58.0,64.0,59.2,56.0,95,85,65,27.90,27.77,5,1,11,0.00
2013-7-27,82.0,68.8,56.0,67.0,60.2,54.0,96,76,48,27.85,27.77,3,1,8,0.00
2013-7-28,81.0,68.4,60.0,70.0,63.4,59.0,98,85,58,27.81,27.75,6,2,12,0.00
2013-7-29,81.0,70.2,61.0,69.0,63.8,57.0,98,82,56,27.86,27.77,4,1,11,0.00
2013-7-30,78.0,66.3,55.0,60.0,56.6,52.0,96,73,45,27.91,27.84,5,1,10,0.00
2013-7-31,79.0,66.8,53.0,63.0,57.8,52.0,98,76,46,27.94,27.83,5,1,9,0.00
2013-8-1,79.0,63.9,55.0,65.0,60.3,54.0,98,89,58,27.84,27.65,5,1,13,0.28
2013-8-2,78.0,68.4,62.0,66.0,60.7,56.0,98,79,48,27.65,27.58,6,2,15,0.15
2013-8-3,75.0,65.3,56.0,64.0,57.3,54.0,98,77,50,27.65,27.57,7,2,17,0.18
2013-8-4,70.0,61.7,53.0,62.0,55.8,52.0,96,82,63,27.70,27.60,4,1,9,0.20
2013-8-5,70.0,59.9,51.0,52.0,47.4,35.0,95,67,28,27.85,27.70,6,2,13,0.12
2013-8-6,76.0,60.6,44.0,56.0,50.4,43.0,97,73,38,27.93,27.85,4,1,8,0.00
2013-8-7,69.0,58.2,53.0,58.0,54.2,51.0,96,87,68,27.97,27.86,3,1,7,0.00
2013-8-8,83.0,75.3,64.0,70.0,67.9,58.0,94,79,64,27.88,27.78,5,2,9,0.00
2013-8-9,74.0,71.0,67.0,72.0,68.9,66.0,98,93,87,27.73,27.56,4,1,11,0.39
2013-8-10,76.0,69.5,58.0,66.0,55.3,49.0,98,62,42,27.82,27.59,6,2,19,0.01
2013-8-11,74.0,67.4,56.0,58.0,54.7,51.0,90,66,48,27.88,27.79,5,2,10,0.00
2013-8-12,77.0,70.5,56.0,60.0,57.9,54.0,93,66,49,27.82,27.71,5,2,12,0.00
2013-8-13,65.0,63.6,63.0,64.0,62.6,62.0,98,98,97,27.50,27.49,1,0,2,0.45
2013-8-14,68.0,59.6,54.0,63.0,51.2,-99.9,98,80,61,27.73,27.47,6,2,20,0.02
2013-8-15,70.0,54.1,54.0,55.0,37.4,-99.9,91,74,56,27.89,27.81,2,0,6,0.00
2013-8-16,76.0,60.1,47.0,58.0,50.0,-99.9,98,77,49,27.99,27.89,4,1,10,0.00
2013-8-17,74.0,57.4,50.0,61.0,54.6,49.0,98,91,56,28.08,27.99,1,0,3,0.00
2013-8-18,76.0,62.4,52.0,64.0,56.2,-99.9,98,84,59,28.08,27.89,2,1,5,0.00
2013-8-19,81.0,63.1,53.0,64.0,47.6,-99.9,98,78,48,27.88,27.75,4,1,11,0.01
2013-8-20,83.0,67.9,55.0,65.0,58.4,-99.9,98,78,46,27.90,27.80,4,1,9,0.01
2013-8-21,84.0,69.9,57.0,67.0,62.2,56.0,98,79,48,27.96,27.82,5,1,12,0.00
2013-8-22,83.0,68.7,59.0,68.0,62.4,58.0,97,82,55,27.83,27.73,5,1,12,0.00
2013-8-23,64.0,58.5,54.0,52.0,50.5,49.0,86,75,62,27.96,27.88,1,1,3,0.16
2013-8-24,76.0,60.3,44.0,56.0,49.9,43.0,97,73,37,28.13,27.96,4,1,7,0.00
2013-8-25,75.0,55.7,46.0,58.0,48.4,-99.9,98,83,48,28.17,28.08,4,1,9,0.00
2013-8-28,84.0,76.1,64.0,71.0,67.4,62.0,97,76,61,27.81,27.66,14,2,19,1.45
2013-8-29,66.0,62.5,61.0,63.0,61.1,60.0,98,96,88,27.86,27.77,2,1,7,1.45
2013-8-30,83.0,69.2,62.0,70.0,64.3,61.0,98,86,58,27.82,27.60,4,1,8,0.00
2013-8-31,78.0,70.6,66.0,72.0,68.3,65.0,98,93,83,27.62,27.56,3,1,6,1.41
2013-9-1,82.0,72.7,67.0,71.0,67.0,-99.9,98,86,64,27.67,27.58,4,1,7,0.43
2013-9-2,76.0,69.9,67.0,72.0,68.3,65.0,98,95,86,27.66,27.51,6,1,9,0.63
2013-9-3,72.0,66.4,61.0,65.0,62.6,57.0,99,88,70,27.60,27.50,4,1,10,0.15
2013-9-4,70.0,62.6,57.0,60.0,57.8,56.0,97,85,65,27.70,27.60,5,2,13,0.01
2013-9-5,65.0,57.3,44.0,55.0,45.0,39.0,95,65,43,27.94,27.75,7,2,11,0.10
2013-9-6,60.0,43.6,36.0,45.0,39.6,35.0,98,88,53,28.03,27.94,2,0,6,0.03
2013-9-8,50.0,48.4,46.0,42.0,41.0,40.0,80,76,71,27.87,27.84,2,0,9,0.02
2013-9-9,68.0,51.9,37.0,53.0,44.2,36.0,97,78,48,28.00,27.87,5,1,12,0.02
2013-9-10,73.0,60.3,48.0,69.0,58.6,47.0,97,94,85,27.90,27.80,2,0,4,0.28
2013-9-11,89.0,75.9,67.0,76.0,70.0,66.0,99,84,56,27.86,27.72,5,1,11,0.01
2013-9-12,83.0,70.4,65.0,74.0,67.6,64.0,99,92,73,27.69,27.46,7,1,16,1.12
2013-9-13,65.0,60.2,54.0,64.0,58.6,52.0,98,95,91,27.60,27.42,3,1,12,1.04
2013-9-14,58.0,54.1,49.0,53.0,50.8,48.0,97,89,77,27.85,27.59,3,1,10,0.02
2013-9-15,67.0,52.0,44.0,53.0,46.3,-99.9,98,86,57,27.94,27.82,3,1,8,0.00
2013-9-16,53.0,44.4,39.0,40.0,37.1,35.0,87,76,62,28.07,27.93,3,1,13,0.09
2013-9-17,63.0,48.0,36.0,48.0,40.3,34.0,96,77,50,28.22,28.07,3,1,12,0.03
2013-9-18,43.0,40.6,39.0,42.0,39.6,38.0,98,97,96,28.11,28.08,1,0,2,0.00
2013-9-19,60.0,60.0,60.0,53.0,53.0,53.0,78,78,78,27.84,27.84,0,0,0,0.00
2013-9-20,68.0,61.4,58.0,58.0,56.1,55.0,91,83,70,27.79,27.78,1,0,3,0.00
2013-9-21,73.0,62.4,51.0,63.0,56.6,50.0,98,83,48,27.78,27.45,6,2,21,0.03
2013-9-22,67.0,56.8,47.0,63.0,51.0,-99.9,97,84,69,27.63,27.36,7,2,19,0.55
2013-9-24,60.0,52.0,45.0,45.0,42.6,39.0,84,71,50,27.74,27.64,6,2,12,0.00
2013-9-25,64.0,54.2,48.0,52.0,47.5,44.0,88,79,63,27.78,27.68,4,1,11,0.00
2013-9-26,64.0,51.7,38.0,51.0,45.9,37.0,97,82,60,27.94,27.79,4,1,9,0.00
2013-9-27,66.0,54.8,47.0,55.0,50.1,45.0,96,85,65,28.07,27.94,4,1,10,0.00
2013-9-28,72.0,56.0,45.0,58.0,50.2,44.0,98,84,50,28.15,28.05,4,1,8,0.00
2013-9-29,72.0,54.5,42.0,56.0,47.3,-99.9,98,81,53,28.06,27.88,7,1,9,0.01
2013-9-30,70.0,53.6,39.0,55.0,48.1,38.0,98,84,55,27.91,27.76,4,1,9,0.01
2013-10-1,60.0,55.7,47.0,57.0,53.9,46.0,96,94,89,27.77,27.68,1,0,2,0.01
2013-10-2,75.0,61.2,46.0,62.0,55.2,45.0,98,83,62,27.73,27.63,7,2,17,0.01
2013-10-3,73.0,60.8,49.0,54.0,51.1,47.0,94,73,42,27.88,27.75,4,1,9,0.00
2013-10-4,67.0,54.8,43.0,57.0,50.6,42.0,98,87,64,27.89,27.82,2,0,5,0.00
2013-10-5,63.0,58.6,55.0,55.0,52.4,48.0,94,81,62,27.91,27.85,3,0,5,0.00
2013-10-6,49.0,47.4,46.0,48.0,46.0,44.0,97,95,86,27.99,27.92,8,5,13,0.25
2013-10-7,68.0,56.2,49.0,66.0,54.9,48.0,98,96,87,27.92,27.48,7,3,15,0.54
2013-10-8,60.0,51.4,43.0,49.0,41.5,36.0,94,71,44,28.13,27.68,6,2,15,0.40
2013-10-9,48.0,44.5,41.0,42.0,40.8,39.0,94,88,80,28.16,28.15,1,0,1,0.00
2013-10-10,62.0,46.9,35.0,51.0,42.5,34.0,97,86,54,28.15,27.98,3,1,5,0.01
2013-10-11,69.0,51.9,44.0,54.0,47.2,43.0,98,86,46,27.98,27.91,2,0,4,0.01
2013-10-12,59.0,49.1,38.0,53.0,46.8,37.0,98,92,81,28.18,27.98,7,2,11,0.00
2013-10-13,60.0,48.4,41.0,50.0,43.7,-99.9,98,87,68,28.23,28.15,7,2,12,0.01
2013-10-14,63.0,57.5,48.0,55.0,52.1,46.0,93,83,70,28.13,28.01,2,0,4,0.00
2013-10-15,62.0,57.1,52.0,55.0,53.2,51.0,96,87,75,28.05,27.94,5,1,8,0.00
2013-10-16,62.0,54.7,50.0,53.0,50.1,47.0,92,85,70,27.94,27.65,6,2,11,0.00
2013-10-17,68.0,56.2,50.0,55.0,49.3,46.0,97,79,52,27.66,27.48,6,1,13,0.09
2013-10-18,60.0,53.2,49.0,52.0,47.6,37.0,98,82,61,27.66,27.37,8,3,18,0.43
2013-10-19,62.0,51.2,37.0,47.0,41.6,35.0,95,71,53,27.72,27.48,6,2,12,0.01
2013-10-20,55.0,48.4,41.0,47.0,37.4,-99.9,92,69,48,27.76,27.43,9,3,17,0.01
2013-10-21,62.0,47.3,31.0,44.0,38.7,30.0,96,74,49,27.86,27.71,5,1,9,0.01
2013-10-22,55.0,48.9,40.0,48.0,41.9,31.0,89,77,62,27.71,27.48,7,2,16,0.00
2013-10-23,51.0,40.9,32.0,37.0,33.6,30.0,94,76,52,27.55,27.36,4,1,8,0.00
2013-10-24,45.0,39.6,32.0,36.0,32.3,29.0,93,76,57,27.62,27.41,10,3,21,0.04
2013-10-25,44.0,38.6,34.0,34.0,30.8,28.0,95,74,55,27.79,27.62,6,2,15,0.04
2013-10-30,46.0,37.5,28.0,35.0,31.5,24.0,94,79,65,28.05,27.94,5,1,10,0.00
2013-10-31,57.0,39.6,29.0,56.0,38.2,27.0,98,95,89,27.99,27.50,4,1,8,0.21
2013-11-1,65.0,60.2,54.0,61.0,53.4,42.0,96,80,52,27.47,27.13,13,6,31,0.60
2013-11-2,53.0,44.7,39.0,43.0,40.6,38.0,96,86,68,27.45,27.38,5,1,12,0.37
2013-11-5,48.0,32.6,22.0,31.0,24.7,17.0,86,74,51,28.44,28.24,5,1,11,0.00
2013-11-6,57.0,43.9,32.0,45.0,37.6,29.0,94,80,62,28.23,27.73,5,2,13,0.00
2013-11-7,54.0,47.4,36.0,53.0,43.4,27.0,96,86,69,27.73,27.46,8,2,17,0.14
2013-11-8,39.0,33.0,27.0,33.0,26.6,23.0,93,77,63,27.81,27.58,7,2,16,0.03
2013-11-9,41.0,34.5,31.0,30.0,22.1,-99.9,90,63,50,27.92,27.75,7,2,21,0.02
2013-11-10,43.0,36.1,32.0,40.0,34.3,30.0,96,93,87,27.75,27.47,7,1,18,0.16
2013-11-11,43.0,37.9,33.0,33.0,29.5,27.0,93,72,54,27.82,27.60,6,3,14,0.02
2013-11-12,42.0,27.8,25.0,35.0,20.6,16.0,94,75,64,27.93,27.60,6,3,16,0.00
2013-11-14,44.0,36.6,27.0,31.0,26.7,19.0,88,68,56,27.83,27.77,7,2,14,0.00
2013-11-15,54.0,35.7,25.0,29.0,23.1,19.0,93,65,26,27.92,27.83,4,1,7,0.00
2013-11-16,58.0,46.4,34.0,31.0,25.9,-99.9,78,49,33,28.06,28.01,3,1,6,0.00
2013-11-17,46.0,41.8,32.0,45.0,39.8,28.0,97,92,73,28.04,27.60,7,4,12,0.08
2013-11-18,55.0,51.4,47.0,54.0,48.9,46.0,98,92,79,27.58,27.24,10,4,26,0.44
2013-12-2,39.0,33.4,30.0,35.0,30.9,28.0,95,91,83,27.78,27.65,2,0,4,0.00
2013-12-3,37.0,32.3,30.0,34.0,31.0,28.0,97,95,85,27.71,27.64,4,1,7,0.00
2013-12-4,33.0,31.4,30.0,30.0,26.2,23.0,90,81,75,27.74,27.70,3,2,10,0.00
2013-12-8,23.0,23.0,23.0,15.0,15.0,15.0,71,71,70,28.22,28.21,1,1,2,0.00
2013-12-9,27.0,24.1,21.0,26.0,20.6,13.0,96,86,64,28.20,27.60,10,4,16,0.00
2013-12-10,32.0,27.2,21.0,28.0,21.1,10.0,97,78,58,27.63,27.50,8,2,17,0.00
2013-12-11,26.0,22.9,17.0,20.0,14.8,11.0,91,72,55,27.85,27.77,7,4,16,0.00
2013-12-12,16.0,13.4,12.0,13.0,10.4,9.0,89,87,86,27.88,27.85,2,1,7,0.00
2013-12-16,12.0,4.5,-2.0,3.0,-2.1,-7.0,79,73,62,27.91,27.79,3,1,8,0.00
2013-12-17,10.0,0.9,-13.0,7.0,-3.8,-17.0,89,81,61,27.96,27.74,6,1,10,0.00
2013-12-18,28.0,17.4,7.0,21.0,13.2,5.0,91,84,69,27.73,27.63,5,1,10,0.00
2013-12-19,35.0,29.3,24.0,28.0,23.5,21.0,91,79,63,27.79,27.65,5,2,12,0.00
2013-12-20,36.0,35.4,35.0,35.0,34.4,34.0,97,96,95,27.67,27.65,1,0,2,0.12
2013-12-21,48.0,39.9,35.0,44.0,36.9,-99.9,97,93,82,27.65,27.58,2,0,3,0.14
2013-12-22,41.0,35.4,32.0,40.0,34.5,32.0,98,97,97,27.75,27.52,7,3,12,0.18
2013-12-23,35.0,32.6,31.0,34.0,32.2,30.0,98,98,92,27.86,27.72,6,1,10,0.21
2013-12-24,31.0,24.1,12.0,28.0,17.4,7.0,90,76,58,27.94,27.79,4,2,10,0.02
2013-12-25,17.0,9.2,3.0,6.0,1.1,-4.0,82,69,53,28.22,27.95,6,2,13,0.00
2013-12-26,25.0,19.5,13.0,23.0,16.1,6.0,95,86,69,28.16,27.81,5,2,8,0.00
2013-12-27,31.0,25.2,21.0,22.0,19.7,18.0,94,80,62,27.94,27.88,7,2,14,0.00
2013-12-28,38.0,29.8,21.0,32.0,24.0,-99.9,91,82,73,27.90,27.70,3,1,10,0.01
2013-12-29,36.0,31.1,25.0,33.0,29.4,24.0,97,93,83,27.74,27.32,2,0,5,0.01
2013-12-30,35.0,23.7,2.0,33.0,20.6,-1.0,97,88,74,27.90,27.31,0,0,0,0.01
2013-12-31,14.0,5.5,-2.0,10.0,0.4,-6.0,93,80,62,27.90,27.71,2,0,5,0.01
2014-1-1,19.0,12.1,6.0,9.0,5.7,1.0,88,76,57,28.08,27.82,10,3,21,0.00
2014-1-2,7.0,3.6,0.0,2.0,-0.3,-3.0,87,83,77,28.09,27.64,2,0,4,0.00